createdAt,value
2022-12-11T11:39:19.986Z,28.45
2022-12-11T11:42:27.892Z,25.95
2022-12-11T11:45:23.468Z,27.85
2022-12-11T11:48:17.952Z,28.05
2022-12-11T11:50:50.521Z,27.58
2022-12-11T11:53:31.052Z,33.70
2022-12-11T11:56:07.091Z,27.02
2022-12-11T11:59:20.378Z,26.10
2022-12-11T12:01:48.642Z,26.88
2022-12-11T12:04:17.286Z,28.30
2022-12-11T12:06:57.308Z,29.67
2022-12-11T12:09:51.900Z,38.88
2022-12-11T12:12:34.307Z,31.27
2022-12-11T12:15:29.800Z,27.70
2022-12-11T12:18:12.102Z,26.50
2022-12-11T12:20:58.395Z,33.42
2022-12-11T12:23:48.974Z,29.63
2022-12-11T12:26:39.307Z,31.90
2022-12-11T12:29:18.391Z,29.58
2022-12-11T12:32:10.172Z,35.88
2022-12-11T12:34:56.034Z,29.77
2022-12-11T12:37:45.309Z,31.95
2022-12-11T12:40:37.979Z,29.45
2022-12-11T12:43:31.940Z,33.17
2022-12-11T12:46:24.459Z,28.98
2022-12-11T12:48:53.318Z,30.52
2022-12-11T12:51:22.209Z,33.13
2022-12-11T12:54:02.007Z,31.13
2022-12-11T12:56:31.519Z,31.48
2022-12-11T12:58:59.969Z,29.38
2022-12-11T13:01:29.570Z,27.50
2022-12-11T13:04:06.367Z,25.17
2022-12-11T13:06:45.815Z,30.23
2022-12-11T13:09:23.914Z,24.40
2022-12-11T13:11:57.723Z,33.05
2022-12-11T13:14:33.788Z,28.48
2022-12-11T13:17:21.707Z,28.80
2022-12-11T13:19:53.069Z,34.85
2022-12-11T13:22:25.174Z,27.95
2022-12-11T13:24:53.569Z,31.30
2022-12-11T13:27:37.281Z,28.42
2022-12-11T13:30:25.227Z,29.02
2022-12-11T13:33:02.791Z,28.73
2022-12-11T13:35:33.592Z,30.85
2022-12-11T13:38:19.428Z,27.65
2022-12-11T13:40:54.304Z,32.05
2022-12-11T13:43:30.989Z,31.00
2022-12-11T13:46:01.371Z,27.83
2022-12-11T13:48:48.817Z,31.55
2022-12-11T13:51:19.341Z,26.20
2022-12-11T13:53:47.678Z,23.55
2022-12-11T13:56:23.184Z,31.00
2022-12-11T13:58:51.277Z,24.60
2022-12-11T14:01:28.060Z,31.05
2022-12-11T14:04:01.281Z,31.33
2022-12-11T14:06:31.453Z,27.60
2022-12-11T14:09:01.277Z,26.92
2022-12-11T14:11:31.845Z,24.88
2022-12-11T14:14:02.066Z,25.38
2022-12-11T14:16:31.003Z,25.58
2022-12-11T14:19:07.604Z,27.40
2022-12-11T14:21:36.619Z,27.13
2022-12-11T14:24:08.663Z,26.85
2022-12-11T14:26:38.819Z,27.25
2022-12-11T14:29:07.458Z,25.02
2022-12-11T14:31:37.389Z,29.63
2022-12-11T14:34:21.573Z,30.20
2022-12-11T14:36:50.865Z,28.23
2022-12-11T14:39:34.047Z,24.67
2022-12-11T14:42:11.097Z,27.10
2022-12-11T14:44:51.279Z,26.00
2022-12-11T14:47:43.981Z,25.60
2022-12-11T14:50:17.791Z,22.65
2022-12-11T14:53:02.712Z,26.13
2022-12-11T14:55:33.053Z,27.83
2022-12-11T14:58:15.505Z,23.07
2022-12-11T15:00:43.657Z,31.88
2022-12-11T15:03:18.198Z,28.30
2022-12-11T15:05:57.384Z,34.35
2022-12-11T15:08:37.052Z,22.33
2022-12-11T15:11:13.837Z,21.17
2022-12-11T15:13:56.507Z,27.70
2022-12-11T15:16:27.306Z,29.58
2022-12-11T15:18:56.841Z,21.85
2022-12-11T15:21:33.066Z,23.20
2022-12-11T15:24:03.913Z,24.38
2022-12-11T15:26:39.839Z,26.23
2022-12-11T15:29:27.212Z,21.40
2022-12-11T15:32:08.585Z,29.60
2022-12-11T15:37:33.051Z,22.15
2022-12-11T15:40:02.954Z,24.45
2022-12-11T15:42:36.854Z,20.77
2022-12-11T15:45:12.426Z,29.05
2022-12-11T15:47:40.767Z,25.48
2022-12-11T15:50:23.162Z,40.72
2022-12-11T15:52:52.915Z,34.03
2022-12-11T15:55:22.588Z,29.17
2022-12-11T15:57:53.570Z,23.20
2022-12-11T16:00:24.110Z,29.38
2022-12-11T16:02:52.351Z,23.42
2022-12-11T16:05:23.192Z,25.63
2022-12-11T16:07:53.498Z,25.48
2022-12-11T16:10:22.618Z,23.90
2022-12-11T16:12:51.148Z,25.27
2022-12-11T16:15:23.564Z,30.67
2022-12-11T16:18:04.116Z,31.05
2022-12-11T16:20:32.679Z,29.50
2022-12-11T16:23:00.928Z,25.25
2022-12-11T16:25:29.617Z,31.35
2022-12-11T16:27:58.807Z,28.00
2022-12-11T16:30:28.538Z,23.38
2022-12-11T16:32:57.256Z,27.15
2022-12-11T16:35:25.778Z,25.55
2022-12-11T16:37:54.865Z,30.73
2022-12-11T16:40:23.886Z,29.17
2022-12-11T16:42:52.265Z,26.73
2022-12-11T16:45:23.079Z,36.00
2022-12-11T16:47:51.547Z,29.15
2022-12-11T16:50:20.284Z,28.48
2022-12-11T16:52:48.362Z,27.77
2022-12-11T16:55:21.153Z,29.95
2022-12-11T16:57:49.537Z,30.25
2022-12-11T17:00:18.196Z,26.00
2022-12-11T17:02:46.360Z,25.85
2022-12-11T17:05:15.160Z,27.38
2022-12-11T17:07:43.383Z,26.02
2022-12-11T17:10:12.049Z,27.05
2022-12-11T17:12:40.170Z,31.38
2022-12-11T17:15:08.905Z,30.05
2022-12-11T17:17:37.365Z,23.30
2022-12-11T17:20:06.409Z,27.30
2022-12-11T17:22:35.281Z,23.98
2022-12-11T17:25:03.929Z,28.92
2022-12-11T17:27:32.081Z,28.42
2022-12-11T17:30:00.513Z,29.20
2022-12-11T17:32:28.613Z,29.27
2022-12-11T17:34:57.043Z,28.85
2022-12-11T17:37:25.137Z,28.50
2022-12-11T17:39:53.649Z,30.17
2022-12-11T17:42:21.706Z,30.00
2022-12-11T17:44:50.121Z,30.13
2022-12-11T17:47:19.509Z,29.70
2022-12-11T17:49:48.629Z,28.92
2022-12-11T17:52:16.770Z,32.35
2022-12-11T17:54:45.252Z,32.33
2022-12-11T17:57:13.434Z,31.48
2022-12-11T17:59:41.900Z,29.48
2022-12-11T18:02:10.890Z,28.98
2022-12-11T18:04:39.984Z,33.00
2022-12-11T18:07:08.127Z,31.75
2022-12-11T18:09:38.789Z,24.67
2022-12-11T18:12:08.030Z,37.30
2022-12-11T18:14:37.350Z,35.15
2022-12-11T18:17:06.964Z,38.33
2022-12-11T18:19:35.433Z,37.90
2022-12-11T18:22:03.624Z,34.30
2022-12-11T18:24:32.148Z,37.70
2022-12-11T18:27:00.528Z,36.38
2022-12-11T18:29:29.185Z,38.53
2022-12-11T18:31:57.321Z,34.25
2022-12-11T18:34:25.744Z,38.78
2022-12-11T18:36:53.874Z,39.05
2022-12-11T18:39:22.272Z,36.65
2022-12-11T18:42:09.695Z,45.45
2022-12-11T18:44:38.942Z,42.17
2022-12-11T18:47:07.404Z,50.53
2022-12-11T18:49:36.668Z,36.38
2022-12-11T18:52:05.384Z,39.63
2022-12-11T18:54:33.871Z,43.53
2022-12-11T18:57:02.198Z,42.58
2022-12-11T18:59:30.665Z,48.08
2022-12-11T19:01:58.751Z,37.20
2022-12-11T19:04:27.186Z,40.80
2022-12-11T19:06:55.401Z,38.00
2022-12-11T19:09:23.793Z,46.13
2022-12-11T19:11:51.904Z,41.63
2022-12-11T19:14:20.447Z,41.65
2022-12-11T19:16:49.946Z,43.03
2022-12-11T19:19:21.040Z,41.72
2022-12-11T19:21:50.104Z,41.35
2022-12-11T19:24:23.388Z,33.78
2022-12-11T19:26:51.638Z,39.13
2022-12-11T19:29:32.641Z,36.78
2022-12-11T19:32:02.742Z,39.25
2022-12-11T19:34:31.246Z,42.17
2022-12-11T19:36:59.436Z,42.63
2022-12-11T19:39:28.121Z,45.28
2022-12-11T19:41:56.388Z,40.95
2022-12-11T19:44:24.814Z,39.95
2022-12-11T19:46:52.941Z,41.13
2022-12-11T19:49:21.625Z,40.40
2022-12-11T19:51:50.045Z,36.00
2022-12-11T19:54:19.002Z,43.45
2022-12-11T19:56:47.585Z,44.72
2022-12-11T19:59:17.805Z,45.60
2022-12-11T20:01:48.254Z,40.08
2022-12-11T20:04:17.842Z,34.65
2022-12-11T20:06:47.142Z,37.97
2022-12-11T20:09:16.048Z,39.08
2022-12-11T20:11:45.639Z,38.53
2022-12-11T20:14:25.300Z,40.88
2022-12-11T20:17:12.000Z,33.63
2022-12-11T20:19:42.135Z,37.53
2022-12-11T20:22:10.418Z,32.00
2022-12-11T20:24:39.088Z,31.88
2022-12-11T20:27:07.297Z,36.47
2022-12-11T20:29:35.819Z,35.35
2022-12-11T20:32:05.130Z,34.60
2022-12-11T20:34:33.585Z,30.55
2022-12-11T20:37:01.690Z,35.92
2022-12-11T20:39:32.051Z,37.40
2022-12-11T20:42:01.297Z,33.40
2022-12-11T20:44:29.757Z,34.65
2022-12-11T20:46:57.991Z,32.63
2022-12-11T20:49:26.672Z,29.75
2022-12-11T20:51:56.956Z,31.33
2022-12-11T20:54:25.610Z,34.60
2022-12-11T20:56:53.729Z,32.60
2022-12-11T20:59:22.361Z,29.75
2022-12-11T21:01:50.761Z,35.28
2022-12-11T21:04:19.298Z,30.02
2022-12-11T21:06:55.172Z,33.13
2022-12-11T21:09:26.809Z,46.70
2022-12-11T21:11:57.084Z,39.15
2022-12-11T21:14:25.589Z,29.42
2022-12-11T21:16:54.041Z,33.00
2022-12-11T21:19:22.749Z,26.75
2022-12-11T21:21:51.718Z,30.95
2022-12-11T21:24:23.349Z,34.28
2022-12-11T21:26:51.491Z,38.65
2022-12-11T21:29:19.920Z,30.00
2022-12-11T21:31:48.200Z,33.60
2022-12-11T21:34:22.029Z,27.95
2022-12-11T21:36:56.886Z,29.58
2022-12-11T21:39:28.336Z,23.85
2022-12-11T21:41:58.217Z,19.38
2022-12-11T21:47:15.659Z,30.75
2022-12-11T21:49:44.132Z,26.65
2022-12-11T21:52:13.393Z,33.47
2022-12-11T21:54:41.814Z,34.83
2022-12-11T21:57:09.909Z,36.20
2022-12-11T21:59:38.304Z,30.65
2022-12-11T22:02:06.499Z,30.33
2022-12-11T22:04:35.142Z,31.98
2022-12-11T22:07:03.438Z,33.35
2022-12-11T22:09:31.855Z,34.33
2022-12-11T22:12:00.082Z,32.53
2022-12-11T22:14:31.440Z,31.90
2022-12-11T22:17:00.541Z,32.83
2022-12-11T22:19:32.452Z,33.17
2022-12-11T22:22:00.908Z,33.50
2022-12-11T22:24:29.416Z,40.78
2022-12-11T22:26:57.488Z,34.50
2022-12-11T22:29:26.007Z,30.73
2022-12-11T22:31:54.673Z,36.35
2022-12-11T22:34:23.189Z,33.58
2022-12-11T22:36:52.161Z,33.17
2022-12-11T22:39:20.673Z,29.73
2022-12-11T22:41:48.827Z,34.30
2022-12-11T22:44:19.564Z,36.13
2022-12-11T22:46:50.283Z,27.63
2022-12-11T22:49:20.422Z,35.58
2022-12-11T22:51:49.513Z,33.55
